sensor_id;sensor_type;location;lat;lon;timestamp;P1;durP1;ratioP1;P2;durP2;ratioP2
35959;SDS011;22043;50.970;7.192;2023-11-18T00:01:17;23.92;;;9.07;;
35959;SDS011;22043;50.970;7.192;2023-11-18T00:03:42;22.83;;;7.70;;
35959;SDS011;22043;50.970;7.192;2023-11-18T00:06:08;24.10;;;8.75;;
35959;SDS011;22043;50.970;7.192;2023-11-18T00:08:34;24.33;;;7.72;;
35959;SDS011;22043;50.970;7.192;2023-11-18T00:10:59;17.42;;;7.95;;
35959;SDS011;22043;50.970;7.192;2023-11-18T00:13:24;17.77;;;8.23;;
35959;SDS011;22043;50.970;7.192;2023-11-18T00:15:51;18.75;;;7.70;;
35959;SDS011;22043;50.970;7.192;2023-11-18T00:18:17;19.73;;;7.88;;
35959;SDS011;22043;50.970;7.192;2023-11-18T00:20:44;21.35;;;8.48;;
35959;SDS011;22043;50.970;7.192;2023-11-18T00:23:09;18.95;;;8.55;;
35959;SDS011;22043;50.970;7.192;2023-11-18T00:25:35;18.40;;;7.30;;
35959;SDS011;22043;50.970;7.192;2023-11-18T00:28:01;18.67;;;7.80;;
35959;SDS011;22043;50.970;7.192;2023-11-18T00:30:27;22.88;;;8.05;;
35959;SDS011;22043;50.970;7.192;2023-11-18T00:32:53;19.35;;;7.40;;
35959;SDS011;22043;50.970;7.192;2023-11-18T00:35:18;23.23;;;7.60;;
35959;SDS011;22043;50.970;7.192;2023-11-18T00:37:44;24.13;;;8.43;;
35959;SDS011;22043;50.970;7.192;2023-11-18T00:40:09;19.75;;;8.15;;
35959;SDS011;22043;50.970;7.192;2023-11-18T00:42:36;17.13;;;6.97;;
35959;SDS011;22043;50.970;7.192;2023-11-18T00:45:02;18.63;;;7.40;;
35959;SDS011;22043;50.970;7.192;2023-11-18T00:47:29;23.98;;;8.13;;
35959;SDS011;22043;50.970;7.192;2023-11-18T00:49:54;21.40;;;8.60;;
35959;SDS011;22043;50.970;7.192;2023-11-18T00:52:20;24.27;;;9.27;;
35959;SDS011;22043;50.970;7.192;2023-11-18T00:54:45;19.33;;;8.00;;
35959;SDS011;22043;50.970;7.192;2023-11-18T00:57:11;18.52;;;7.60;;
35959;SDS011;22043;50.970;7.192;2023-11-18T00:59:36;20.38;;;7.50;;
35959;SDS011;22043;50.970;7.192;2023-11-18T01:02:02;22.67;;;7.80;;
35959;SDS011;22043;50.970;7.192;2023-11-18T01:04:28;20.65;;;7.20;;
35959;SDS011;22043;50.970;7.192;2023-11-18T01:06:54;21.10;;;8.05;;
35959;SDS011;22043;50.970;7.192;2023-11-18T01:09:19;21.52;;;7.90;;
35959;SDS011;22043;50.970;7.192;2023-11-18T01:11:45;18.80;;;8.13;;
35959;SDS011;22043;50.970;7.192;2023-11-18T01:14:10;20.60;;;7.68;;
35959;SDS011;22043;50.970;7.192;2023-11-18T01:16:36;20.33;;;7.75;;
35959;SDS011;22043;50.970;7.192;2023-11-18T01:19:03;25.25;;;8.50;;
35959;SDS011;22043;50.970;7.192;2023-11-18T01:21:28;21.85;;;9.52;;
35959;SDS011;22043;50.970;7.192;2023-11-18T01:23:54;19.42;;;6.85;;
35959;SDS011;22043;50.970;7.192;2023-11-18T01:26:20;18.98;;;7.70;;
35959;SDS011;22043;50.970;7.192;2023-11-18T01:28:46;20.55;;;7.55;;
35959;SDS011;22043;50.970;7.192;2023-11-18T01:31:12;20.92;;;8.50;;
35959;SDS011;22043;50.970;7.192;2023-11-18T01:33:38;22.35;;;8.77;;
35959;SDS011;22043;50.970;7.192;2023-11-18T01:36:10;20.67;;;7.70;;
35959;SDS011;22043;50.970;7.192;2023-11-18T01:38:39;19.30;;;7.53;;
35959;SDS011;22043;50.970;7.192;2023-11-18T01:41:05;24.02;;;9.80;;
35959;SDS011;22043;50.970;7.192;2023-11-18T01:43:31;16.50;;;7.68;;
35959;SDS011;22043;50.970;7.192;2023-11-18T01:46:00;27.40;;;9.93;;
35959;SDS011;22043;50.970;7.192;2023-11-18T01:48:29;23.63;;;7.97;;
35959;SDS011;22043;50.970;7.192;2023-11-18T01:50:59;21.27;;;7.80;;
35959;SDS011;22043;50.970;7.192;2023-11-18T01:53:26;23.17;;;10.18;;
35959;SDS011;22043;50.970;7.192;2023-11-18T01:55:52;24.00;;;9.68;;
35959;SDS011;22043;50.970;7.192;2023-11-18T01:58:17;26.92;;;9.38;;
35959;SDS011;22043;50.970;7.192;2023-11-18T02:00:45;23.88;;;9.57;;
35959;SDS011;22043;50.970;7.192;2023-11-18T02:03:14;23.92;;;8.48;;
35959;SDS011;22043;50.970;7.192;2023-11-18T02:05:39;26.98;;;8.77;;
35959;SDS011;22043;50.970;7.192;2023-11-18T02:08:07;20.85;;;8.43;;
35959;SDS011;22043;50.970;7.192;2023-11-18T02:10:48;20.50;;;7.93;;
35959;SDS011;22043;50.970;7.192;2023-11-18T02:13:20;23.38;;;9.45;;
35959;SDS011;22043;50.970;7.192;2023-11-18T02:15:53;21.50;;;8.60;;
35959;SDS011;22043;50.970;7.192;2023-11-18T02:18:26;22.42;;;9.98;;
35959;SDS011;22043;50.970;7.192;2023-11-18T02:20:54;26.50;;;9.13;;
35959;SDS011;22043;50.970;7.192;2023-11-18T02:23:23;22.55;;;9.18;;
35959;SDS011;22043;50.970;7.192;2023-11-18T02:25:49;18.00;;;7.20;;
35959;SDS011;22043;50.970;7.192;2023-11-18T02:28:14;24.65;;;8.45;;
35959;SDS011;22043;50.970;7.192;2023-11-18T02:30:40;30.40;;;9.45;;
35959;SDS011;22043;50.970;7.192;2023-11-18T02:33:22;24.17;;;8.52;;
35959;SDS011;22043;50.970;7.192;2023-11-18T02:38:29;23.83;;;8.60;;
35959;SDS011;22043;50.970;7.192;2023-11-18T02:40:57;24.55;;;9.60;;
35959;SDS011;22043;50.970;7.192;2023-11-18T02:43:24;20.95;;;8.15;;
35959;SDS011;22043;50.970;7.192;2023-11-18T02:45:51;25.23;;;8.73;;
35959;SDS011;22043;50.970;7.192;2023-11-18T02:48:19;24.48;;;9.15;;
35959;SDS011;22043;50.970;7.192;2023-11-18T02:50:45;27.77;;;9.73;;
35959;SDS011;22043;50.970;7.192;2023-11-18T02:53:11;25.15;;;10.88;;
35959;SDS011;22043;50.970;7.192;2023-11-18T02:55:37;23.50;;;8.65;;
35959;SDS011;22043;50.970;7.192;2023-11-18T02:58:02;21.52;;;8.18;;
35959;SDS011;22043;50.970;7.192;2023-11-18T03:00:28;21.50;;;9.23;;
35959;SDS011;22043;50.970;7.192;2023-11-18T03:02:54;27.63;;;9.60;;
35959;SDS011;22043;50.970;7.192;2023-11-18T03:05:19;24.63;;;9.02;;
35959;SDS011;22043;50.970;7.192;2023-11-18T03:07:45;22.20;;;8.50;;
35959;SDS011;22043;50.970;7.192;2023-11-18T03:10:15;22.77;;;8.45;;
35959;SDS011;22043;50.970;7.192;2023-11-18T03:12:47;23.17;;;8.35;;
35959;SDS011;22043;50.970;7.192;2023-11-18T03:15:16;20.52;;;8.48;;
35959;SDS011;22043;50.970;7.192;2023-11-18T03:17:49;21.42;;;9.35;;
35959;SDS011;22043;50.970;7.192;2023-11-18T03:20:18;20.73;;;8.80;;
35959;SDS011;22043;50.970;7.192;2023-11-18T03:22:47;22.73;;;9.00;;
35959;SDS011;22043;50.970;7.192;2023-11-18T03:25:13;23.50;;;9.48;;
35959;SDS011;22043;50.970;7.192;2023-11-18T03:27:38;23.60;;;8.38;;
35959;SDS011;22043;50.970;7.192;2023-11-18T03:30:04;25.85;;;10.05;;
35959;SDS011;22043;50.970;7.192;2023-11-18T03:32:31;21.17;;;8.35;;
35959;SDS011;22043;50.970;7.192;2023-11-18T03:34:57;24.40;;;9.38;;
35959;SDS011;22043;50.970;7.192;2023-11-18T03:37:24;25.97;;;9.47;;
35959;SDS011;22043;50.970;7.192;2023-11-18T03:39:51;24.10;;;9.32;;
35959;SDS011;22043;50.970;7.192;2023-11-18T03:42:17;22.45;;;8.73;;
35959;SDS011;22043;50.970;7.192;2023-11-18T03:44:43;25.70;;;9.32;;
35959;SDS011;22043;50.970;7.192;2023-11-18T03:47:12;27.25;;;9.20;;
35959;SDS011;22043;50.970;7.192;2023-11-18T03:49:39;25.27;;;9.43;;
35959;SDS011;22043;50.970;7.192;2023-11-18T03:52:04;25.13;;;9.18;;
35959;SDS011;22043;50.970;7.192;2023-11-18T03:54:30;21.20;;;9.02;;
35959;SDS011;22043;50.970;7.192;2023-11-18T03:56:56;20.00;;;7.72;;
35959;SDS011;22043;50.970;7.192;2023-11-18T03:59:21;25.10;;;9.52;;
35959;SDS011;22043;50.970;7.192;2023-11-18T04:01:47;24.75;;;9.95;;
35959;SDS011;22043;50.970;7.192;2023-11-18T04:04:14;27.92;;;10.00;;
35959;SDS011;22043;50.970;7.192;2023-11-18T04:06:39;26.42;;;9.13;;
35959;SDS011;22043;50.970;7.192;2023-11-18T04:09:04;22.10;;;8.90;;
35959;SDS011;22043;50.970;7.192;2023-11-18T04:11:31;23.63;;;8.63;;
35959;SDS011;22043;50.970;7.192;2023-11-18T04:13:56;21.05;;;9.43;;
35959;SDS011;22043;50.970;7.192;2023-11-18T04:16:21;24.33;;;9.13;;
35959;SDS011;22043;50.970;7.192;2023-11-18T04:18:47;22.08;;;9.38;;
35959;SDS011;22043;50.970;7.192;2023-11-18T04:21:12;23.50;;;9.18;;
35959;SDS011;22043;50.970;7.192;2023-11-18T04:23:38;21.08;;;8.50;;
35959;SDS011;22043;50.970;7.192;2023-11-18T04:26:06;21.58;;;10.13;;
35959;SDS011;22043;50.970;7.192;2023-11-18T04:28:32;22.02;;;8.77;;
35959;SDS011;22043;50.970;7.192;2023-11-18T04:30:58;26.42;;;9.85;;
35959;SDS011;22043;50.970;7.192;2023-11-18T04:33:24;21.75;;;8.50;;
35959;SDS011;22043;50.970;7.192;2023-11-18T04:35:50;19.65;;;8.18;;
35959;SDS011;22043;50.970;7.192;2023-11-18T04:38:16;23.25;;;9.45;;
35959;SDS011;22043;50.970;7.192;2023-11-18T04:40:42;23.08;;;8.45;;
35959;SDS011;22043;50.970;7.192;2023-11-18T04:43:09;20.13;;;8.82;;
35959;SDS011;22043;50.970;7.192;2023-11-18T04:45:36;23.63;;;8.77;;
35959;SDS011;22043;50.970;7.192;2023-11-18T04:48:02;19.08;;;8.05;;
35959;SDS011;22043;50.970;7.192;2023-11-18T04:50:29;18.30;;;7.65;;
35959;SDS011;22043;50.970;7.192;2023-11-18T04:52:55;18.55;;;8.63;;
35959;SDS011;22043;50.970;7.192;2023-11-18T04:55:23;22.02;;;8.93;;
35959;SDS011;22043;50.970;7.192;2023-11-18T04:57:49;22.15;;;8.48;;
35959;SDS011;22043;50.970;7.192;2023-11-18T05:00:14;22.17;;;8.75;;
35959;SDS011;22043;50.970;7.192;2023-11-18T05:02:42;21.90;;;9.73;;
35959;SDS011;22043;50.970;7.192;2023-11-18T05:05:09;20.77;;;8.47;;
35959;SDS011;22043;50.970;7.192;2023-11-18T05:07:36;19.40;;;7.90;;
35959;SDS011;22043;50.970;7.192;2023-11-18T05:10:01;20.75;;;8.65;;
35959;SDS011;22043;50.970;7.192;2023-11-18T05:12:28;23.10;;;8.73;;
35959;SDS011;22043;50.970;7.192;2023-11-18T05:14:55;17.38;;;8.02;;
35959;SDS011;22043;50.970;7.192;2023-11-18T05:17:21;21.98;;;9.38;;
35959;SDS011;22043;50.970;7.192;2023-11-18T05:19:47;18.50;;;7.60;;
35959;SDS011;22043;50.970;7.192;2023-11-18T05:22:13;21.05;;;8.10;;
35959;SDS011;22043;50.970;7.192;2023-11-18T05:24:38;20.50;;;8.32;;
35959;SDS011;22043;50.970;7.192;2023-11-18T05:27:04;22.15;;;9.00;;
35959;SDS011;22043;50.970;7.192;2023-11-18T05:29:30;21.50;;;9.13;;
35959;SDS011;22043;50.970;7.192;2023-11-18T05:31:55;16.83;;;7.53;;
35959;SDS011;22043;50.970;7.192;2023-11-18T05:34:21;20.38;;;8.82;;
35959;SDS011;22043;50.970;7.192;2023-11-18T05:36:47;20.33;;;9.25;;
35959;SDS011;22043;50.970;7.192;2023-11-18T05:39:14;20.98;;;8.15;;
35959;SDS011;22043;50.970;7.192;2023-11-18T05:41:40;18.92;;;7.60;;
35959;SDS011;22043;50.970;7.192;2023-11-18T05:44:10;17.02;;;8.30;;
35959;SDS011;22043;50.970;7.192;2023-11-18T05:46:42;18.13;;;7.95;;
35959;SDS011;22043;50.970;7.192;2023-11-18T05:49:11;18.58;;;8.00;;
35959;SDS011;22043;50.970;7.192;2023-11-18T05:51:38;20.73;;;7.93;;
35959;SDS011;22043;50.970;7.192;2023-11-18T05:54:05;19.52;;;8.77;;
35959;SDS011;22043;50.970;7.192;2023-11-18T05:56:32;19.55;;;8.73;;
35959;SDS011;22043;50.970;7.192;2023-11-18T05:58:57;18.85;;;8.25;;
35959;SDS011;22043;50.970;7.192;2023-11-18T06:01:23;16.23;;;8.02;;
35959;SDS011;22043;50.970;7.192;2023-11-18T06:03:49;22.55;;;9.43;;
35959;SDS011;22043;50.970;7.192;2023-11-18T06:06:15;18.10;;;7.72;;
35959;SDS011;22043;50.970;7.192;2023-11-18T06:08:41;18.33;;;8.63;;
35959;SDS011;22043;50.970;7.192;2023-11-18T06:11:11;19.15;;;7.78;;
35959;SDS011;22043;50.970;7.192;2023-11-18T06:13:43;19.63;;;7.68;;
35959;SDS011;22043;50.970;7.192;2023-11-18T06:16:16;16.90;;;8.32;;
35959;SDS011;22043;50.970;7.192;2023-11-18T06:18:46;17.38;;;8.60;;
35959;SDS011;22043;50.970;7.192;2023-11-18T06:21:15;17.20;;;7.50;;
35959;SDS011;22043;50.970;7.192;2023-11-18T06:23:42;18.10;;;7.63;;
35959;SDS011;22043;50.970;7.192;2023-11-18T06:26:08;19.85;;;8.38;;
35959;SDS011;22043;50.970;7.192;2023-11-18T06:28:38;18.58;;;7.30;;
35959;SDS011;22043;50.970;7.192;2023-11-18T06:31:03;18.17;;;8.20;;
35959;SDS011;22043;50.970;7.192;2023-11-18T06:33:29;17.00;;;7.70;;
35959;SDS011;22043;50.970;7.192;2023-11-18T06:35:54;20.63;;;8.20;;
35959;SDS011;22043;50.970;7.192;2023-11-18T06:38:21;18.20;;;7.57;;
35959;SDS011;22043;50.970;7.192;2023-11-18T06:40:47;17.20;;;7.63;;
35959;SDS011;22043;50.970;7.192;2023-11-18T06:43:17;18.35;;;8.65;;
35959;SDS011;22043;50.970;7.192;2023-11-18T06:45:44;19.30;;;7.72;;
35959;SDS011;22043;50.970;7.192;2023-11-18T06:48:09;16.50;;;7.63;;
35959;SDS011;22043;50.970;7.192;2023-11-18T06:50:35;18.25;;;8.43;;
35959;SDS011;22043;50.970;7.192;2023-11-18T06:53:00;20.80;;;9.02;;
35959;SDS011;22043;50.970;7.192;2023-11-18T06:55:26;17.90;;;7.70;;
35959;SDS011;22043;50.970;7.192;2023-11-18T06:57:52;13.65;;;6.85;;
35959;SDS011;22043;50.970;7.192;2023-11-18T07:00:19;16.27;;;7.30;;
35959;SDS011;22043;50.970;7.192;2023-11-18T07:02:47;17.20;;;7.95;;
35959;SDS011;22043;50.970;7.192;2023-11-18T07:05:12;16.02;;;8.20;;
35959;SDS011;22043;50.970;7.192;2023-11-18T07:07:40;16.52;;;7.90;;
35959;SDS011;22043;50.970;7.192;2023-11-18T07:10:05;16.88;;;7.35;;
35959;SDS011;22043;50.970;7.192;2023-11-18T07:12:34;15.52;;;6.85;;
35959;SDS011;22043;50.970;7.192;2023-11-18T07:15:03;18.65;;;7.75;;
35959;SDS011;22043;50.970;7.192;2023-11-18T07:17:29;13.45;;;6.72;;
35959;SDS011;22043;50.970;7.192;2023-11-18T07:19:55;19.33;;;7.25;;
35959;SDS011;22043;50.970;7.192;2023-11-18T07:22:20;17.85;;;7.70;;
35959;SDS011;22043;50.970;7.192;2023-11-18T07:24:49;16.15;;;6.68;;
35959;SDS011;22043;50.970;7.192;2023-11-18T07:27:14;21.38;;;7.20;;
35959;SDS011;22043;50.970;7.192;2023-11-18T07:29:41;16.30;;;7.30;;
35959;SDS011;22043;50.970;7.192;2023-11-18T07:32:07;19.63;;;6.82;;
35959;SDS011;22043;50.970;7.192;2023-11-18T07:37:00;16.42;;;7.07;;
35959;SDS011;22043;50.970;7.192;2023-11-18T07:39:27;18.92;;;7.47;;
35959;SDS011;22043;50.970;7.192;2023-11-18T07:42:09;13.18;;;6.10;;
35959;SDS011;22043;50.970;7.192;2023-11-18T07:44:35;15.40;;;6.55;;
35959;SDS011;22043;50.970;7.192;2023-11-18T07:47:01;19.73;;;7.25;;
35959;SDS011;22043;50.970;7.192;2023-11-18T07:49:26;17.13;;;7.03;;
35959;SDS011;22043;50.970;7.192;2023-11-18T07:51:52;19.05;;;6.88;;
35959;SDS011;22043;50.970;7.192;2023-11-18T07:54:17;18.30;;;7.55;;
35959;SDS011;22043;50.970;7.192;2023-11-18T07:56:43;17.25;;;7.35;;
35959;SDS011;22043;50.970;7.192;2023-11-18T07:59:11;20.38;;;7.68;;
35959;SDS011;22043;50.970;7.192;2023-11-18T08:01:44;19.67;;;6.13;;
35959;SDS011;22043;50.970;7.192;2023-11-18T08:04:11;23.85;;;7.13;;
35959;SDS011;22043;50.970;7.192;2023-11-18T08:06:39;13.18;;;6.20;;
35959;SDS011;22043;50.970;7.192;2023-11-18T08:09:05;15.48;;;6.80;;
35959;SDS011;22043;50.970;7.192;2023-11-18T08:11:37;19.73;;;7.10;;
35959;SDS011;22043;50.970;7.192;2023-11-18T08:14:04;18.08;;;6.72;;
35959;SDS011;22043;50.970;7.192;2023-11-18T08:16:29;16.35;;;7.20;;
35959;SDS011;22043;50.970;7.192;2023-11-18T08:18:55;13.95;;;6.65;;
35959;SDS011;22043;50.970;7.192;2023-11-18T08:21:20;16.73;;;7.13;;
35959;SDS011;22043;50.970;7.192;2023-11-18T08:23:47;15.25;;;6.85;;
35959;SDS011;22043;50.970;7.192;2023-11-18T08:26:13;15.77;;;6.25;;
35959;SDS011;22043;50.970;7.192;2023-11-18T08:28:39;13.38;;;5.95;;
35959;SDS011;22043;50.970;7.192;2023-11-18T08:31:06;15.97;;;6.20;;
35959;SDS011;22043;50.970;7.192;2023-11-18T08:33:32;18.42;;;7.13;;
35959;SDS011;22043;50.970;7.192;2023-11-18T08:35:59;17.17;;;7.07;;
35959;SDS011;22043;50.970;7.192;2023-11-18T08:38:26;13.90;;;7.28;;
35959;SDS011;22043;50.970;7.192;2023-11-18T08:40:53;15.73;;;6.80;;
35959;SDS011;22043;50.970;7.192;2023-11-18T08:43:18;13.25;;;6.70;;
35959;SDS011;22043;50.970;7.192;2023-11-18T08:45:46;13.57;;;6.78;;
35959;SDS011;22043;50.970;7.192;2023-11-18T08:48:12;12.38;;;6.40;;
35959;SDS011;22043;50.970;7.192;2023-11-18T08:50:38;12.70;;;7.00;;
35959;SDS011;22043;50.970;7.192;2023-11-18T08:53:05;12.20;;;5.65;;
35959;SDS011;22043;50.970;7.192;2023-11-18T08:55:31;15.02;;;6.30;;
35959;SDS011;22043;50.970;7.192;2023-11-18T08:58:17;13.65;;;6.00;;
35959;SDS011;22043;50.970;7.192;2023-11-18T09:00:50;16.48;;;6.68;;
35959;SDS011;22043;50.970;7.192;2023-11-18T09:03:20;13.30;;;6.03;;
35959;SDS011;22043;50.970;7.192;2023-11-18T09:06:05;12.35;;;6.05;;
35959;SDS011;22043;50.970;7.192;2023-11-18T09:08:42;11.57;;;6.20;;
35959;SDS011;22043;50.970;7.192;2023-11-18T09:11:09;14.57;;;6.05;;
35959;SDS011;22043;50.970;7.192;2023-11-18T09:13:36;13.77;;;6.13;;
35959;SDS011;22043;50.970;7.192;2023-11-18T09:18:29;14.50;;;6.28;;
35959;SDS011;22043;50.970;7.192;2023-11-18T09:20:58;11.63;;;6.18;;
35959;SDS011;22043;50.970;7.192;2023-11-18T09:23:26;12.60;;;5.95;;
35959;SDS011;22043;50.970;7.192;2023-11-18T09:25:52;14.10;;;6.05;;
35959;SDS011;22043;50.970;7.192;2023-11-18T09:28:19;13.55;;;6.38;;
35959;SDS011;22043;50.970;7.192;2023-11-18T09:30:45;11.52;;;5.13;;
35959;SDS011;22043;50.970;7.192;2023-11-18T09:33:18;10.60;;;5.50;;
35959;SDS011;22043;50.970;7.192;2023-11-18T09:36:05;12.43;;;5.55;;
35959;SDS011;22043;50.970;7.192;2023-11-18T09:38:36;10.88;;;5.43;;
35959;SDS011;22043;50.970;7.192;2023-11-18T09:41:03;10.18;;;4.63;;
35959;SDS011;22043;50.970;7.192;2023-11-18T09:43:34;12.05;;;5.30;;
35959;SDS011;22043;50.970;7.192;2023-11-18T09:48:40;11.80;;;5.72;;
35959;SDS011;22043;50.970;7.192;2023-11-18T09:51:17;13.57;;;7.00;;
35959;SDS011;22043;50.970;7.192;2023-11-18T09:53:46;11.40;;;5.18;;
35959;SDS011;22043;50.970;7.192;2023-11-18T09:59:37;11.18;;;4.85;;
35959;SDS011;22043;50.970;7.192;2023-11-18T10:02:09;11.35;;;5.28;;
35959;SDS011;22043;50.970;7.192;2023-11-18T10:04:36;11.80;;;4.32;;
35959;SDS011;22043;50.970;7.192;2023-11-18T10:07:07;10.20;;;4.95;;
35959;SDS011;22043;50.970;7.192;2023-11-18T10:09:35;10.98;;;5.80;;
35959;SDS011;22043;50.970;7.192;2023-11-18T10:12:04;8.75;;;4.88;;
35959;SDS011;22043;50.970;7.192;2023-11-18T10:14:37;13.23;;;5.95;;
35959;SDS011;22043;50.970;7.192;2023-11-18T10:17:08;9.23;;;4.78;;
35959;SDS011;22043;50.970;7.192;2023-11-18T10:22:22;11.25;;;4.93;;
35959;SDS011;22043;50.970;7.192;2023-11-18T10:24:51;9.90;;;4.15;;
35959;SDS011;22043;50.970;7.192;2023-11-18T10:27:23;9.45;;;4.55;;
35959;SDS011;22043;50.970;7.192;2023-11-18T10:29:50;9.40;;;4.50;;
35959;SDS011;22043;50.970;7.192;2023-11-18T10:32:17;8.23;;;4.40;;
35959;SDS011;22043;50.970;7.192;2023-11-18T10:34:46;9.40;;;4.15;;
35959;SDS011;22043;50.970;7.192;2023-11-18T10:37:13;12.23;;;4.43;;
35959;SDS011;22043;50.970;7.192;2023-11-18T10:39:38;8.18;;;3.95;;
35959;SDS011;22043;50.970;7.192;2023-11-18T10:42:04;7.70;;;3.85;;
35959;SDS011;22043;50.970;7.192;2023-11-18T10:44:30;10.10;;;4.35;;
35959;SDS011;22043;50.970;7.192;2023-11-18T10:46:56;8.18;;;4.13;;
35959;SDS011;22043;50.970;7.192;2023-11-18T10:49:26;9.45;;;3.90;;
35959;SDS011;22043;50.970;7.192;2023-11-18T10:52:01;8.90;;;4.32;;
35959;SDS011;22043;50.970;7.192;2023-11-18T10:54:28;7.28;;;3.15;;
35959;SDS011;22043;50.970;7.192;2023-11-18T10:56:53;8.40;;;4.18;;
35959;SDS011;22043;50.970;7.192;2023-11-18T10:59:22;10.90;;;4.03;;
35959;SDS011;22043;50.970;7.192;2023-11-18T11:01:48;8.65;;;4.18;;
35959;SDS011;22043;50.970;7.192;2023-11-18T11:04:14;6.97;;;3.22;;
35959;SDS011;22043;50.970;7.192;2023-11-18T11:06:46;8.75;;;3.67;;
35959;SDS011;22043;50.970;7.192;2023-11-18T11:09:20;8.75;;;4.35;;
35959;SDS011;22043;50.970;7.192;2023-11-18T11:11:55;8.52;;;3.63;;
35959;SDS011;22043;50.970;7.192;2023-11-18T11:14:32;7.95;;;3.38;;
35959;SDS011;22043;50.970;7.192;2023-11-18T11:17:06;7.30;;;3.05;;
35959;SDS011;22043;50.970;7.192;2023-11-18T11:22:35;6.65;;;2.97;;
35959;SDS011;22043;50.970;7.192;2023-11-18T11:25:14;8.23;;;2.83;;
35959;SDS011;22043;50.970;7.192;2023-11-18T11:27:54;9.25;;;3.78;;
35959;SDS011;22043;50.970;7.192;2023-11-18T11:30:29;9.65;;;3.97;;
35959;SDS011;22043;50.970;7.192;2023-11-18T11:35:34;6.28;;;3.22;;
35959;SDS011;22043;50.970;7.192;2023-11-18T11:38:02;7.45;;;3.22;;
35959;SDS011;22043;50.970;7.192;2023-11-18T11:40:38;6.60;;;2.85;;
35959;SDS011;22043;50.970;7.192;2023-11-18T11:43:04;6.53;;;3.47;;
35959;SDS011;22043;50.970;7.192;2023-11-18T11:45:34;8.80;;;3.08;;
35959;SDS011;22043;50.970;7.192;2023-11-18T11:48:00;5.45;;;2.80;;
35959;SDS011;22043;50.970;7.192;2023-11-18T11:53:16;6.78;;;2.92;;
35959;SDS011;22043;50.970;7.192;2023-11-18T11:55:49;7.57;;;3.22;;
35959;SDS011;22043;50.970;7.192;2023-11-18T11:58:28;6.78;;;2.88;;
35959;SDS011;22043;50.970;7.192;2023-11-18T12:00:54;6.78;;;3.30;;
35959;SDS011;22043;50.970;7.192;2023-11-18T12:03:22;9.77;;;3.40;;
35959;SDS011;22043;50.970;7.192;2023-11-18T12:08:14;6.57;;;2.78;;
35959;SDS011;22043;50.970;7.192;2023-11-18T12:10:39;9.95;;;3.80;;
35959;SDS011;22043;50.970;7.192;2023-11-18T12:16:14;7.32;;;2.95;;
35959;SDS011;22043;50.970;7.192;2023-11-18T12:18:35;6.65;;;2.90;;
35959;SDS011;22043;50.970;7.192;2023-11-18T12:21:02;6.18;;;3.40;;
35959;SDS011;22043;50.970;7.192;2023-11-18T12:23:29;7.03;;;3.17;;
35959;SDS011;22043;50.970;7.192;2023-11-18T12:25:55;9.73;;;4.05;;
35959;SDS011;22043;50.970;7.192;2023-11-18T12:28:29;8.77;;;3.40;;
35959;SDS011;22043;50.970;7.192;2023-11-18T12:31:00;9.95;;;3.08;;
35959;SDS011;22043;50.970;7.192;2023-11-18T12:42:05;6.63;;;3.40;;
35959;SDS011;22043;50.970;7.192;2023-11-18T12:44:36;10.07;;;3.83;;
35959;SDS011;22043;50.970;7.192;2023-11-18T12:47:05;8.75;;;3.22;;
35959;SDS011;22043;50.970;7.192;2023-11-18T12:49:53;11.00;;;2.92;;
35959;SDS011;22043;50.970;7.192;2023-11-18T12:52:20;6.35;;;3.17;;
35959;SDS011;22043;50.970;7.192;2023-11-18T12:54:46;8.60;;;3.40;;
35959;SDS011;22043;50.970;7.192;2023-11-18T12:57:22;5.80;;;2.70;;
35959;SDS011;22043;50.970;7.192;2023-11-18T12:59:56;8.82;;;3.10;;
35959;SDS011;22043;50.970;7.192;2023-11-18T13:02:21;7.35;;;3.17;;
35959;SDS011;22043;50.970;7.192;2023-11-18T13:04:48;10.13;;;3.38;;
35959;SDS011;22043;50.970;7.192;2023-11-18T13:07:17;8.40;;;3.28;;
35959;SDS011;22043;50.970;7.192;2023-11-18T13:09:43;8.77;;;3.38;;
35959;SDS011;22043;50.970;7.192;2023-11-18T13:12:11;7.47;;;2.97;;
35959;SDS011;22043;50.970;7.192;2023-11-18T13:14:40;10.13;;;3.53;;
35959;SDS011;22043;50.970;7.192;2023-11-18T13:17:10;8.53;;;3.90;;
35959;SDS011;22043;50.970;7.192;2023-11-18T13:19:39;7.15;;;3.13;;
35959;SDS011;22043;50.970;7.192;2023-11-18T13:22:05;8.85;;;3.20;;
35959;SDS011;22043;50.970;7.192;2023-11-18T13:24:36;6.72;;;3.08;;
35959;SDS011;22043;50.970;7.192;2023-11-18T13:27:04;5.38;;;2.90;;
35959;SDS011;22043;50.970;7.192;2023-11-18T13:29:31;10.13;;;3.50;;
35959;SDS011;22043;50.970;7.192;2023-11-18T13:32:01;7.10;;;2.75;;
35959;SDS011;22043;50.970;7.192;2023-11-18T13:34:32;7.00;;;2.60;;
35959;SDS011;22043;50.970;7.192;2023-11-18T13:37:00;8.60;;;3.05;;
35959;SDS011;22043;50.970;7.192;2023-11-18T13:39:26;8.05;;;2.75;;
35959;SDS011;22043;50.970;7.192;2023-11-18T13:41:56;6.38;;;2.70;;
35959;SDS011;22043;50.970;7.192;2023-11-18T13:44:34;5.60;;;2.63;;
35959;SDS011;22043;50.970;7.192;2023-11-18T13:47:01;10.13;;;3.13;;
35959;SDS011;22043;50.970;7.192;2023-11-18T13:49:28;6.37;;;2.47;;
35959;SDS011;22043;50.970;7.192;2023-11-18T13:51:54;5.57;;;1.95;;
35959;SDS011;22043;50.970;7.192;2023-11-18T13:54:21;6.57;;;2.17;;
35959;SDS011;22043;50.970;7.192;2023-11-18T13:56:47;5.80;;;2.15;;
35959;SDS011;22043;50.970;7.192;2023-11-18T13:59:16;9.05;;;3.13;;
35959;SDS011;22043;50.970;7.192;2023-11-18T14:01:42;5.90;;;2.25;;
35959;SDS011;22043;50.970;7.192;2023-11-18T14:04:07;4.72;;;2.20;;
35959;SDS011;22043;50.970;7.192;2023-11-18T14:06:35;4.50;;;2.38;;
35959;SDS011;22043;50.970;7.192;2023-11-18T14:09:00;5.75;;;2.40;;
35959;SDS011;22043;50.970;7.192;2023-11-18T14:11:26;4.53;;;2.30;;
35959;SDS011;22043;50.970;7.192;2023-11-18T14:13:51;5.50;;;1.88;;
35959;SDS011;22043;50.970;7.192;2023-11-18T14:16:18;6.80;;;2.20;;
35959;SDS011;22043;50.970;7.192;2023-11-18T14:18:46;9.25;;;1.88;;
35959;SDS011;22043;50.970;7.192;2023-11-18T14:21:13;7.65;;;2.20;;
35959;SDS011;22043;50.970;7.192;2023-11-18T14:23:39;8.00;;;2.50;;
35959;SDS011;22043;50.970;7.192;2023-11-18T14:26:05;7.38;;;2.58;;
35959;SDS011;22043;50.970;7.192;2023-11-18T14:28:32;4.43;;;2.00;;
35959;SDS011;22043;50.970;7.192;2023-11-18T14:30:59;7.43;;;2.80;;
35959;SDS011;22043;50.970;7.192;2023-11-18T14:33:33;5.75;;;2.20;;
35959;SDS011;22043;50.970;7.192;2023-11-18T14:35:59;8.05;;;2.40;;
35959;SDS011;22043;50.970;7.192;2023-11-18T14:38:26;7.63;;;2.38;;
35959;SDS011;22043;50.970;7.192;2023-11-18T14:40:51;6.25;;;2.58;;
35959;SDS011;22043;50.970;7.192;2023-11-18T14:43:18;4.40;;;2.10;;
35959;SDS011;22043;50.970;7.192;2023-11-18T14:45:44;6.38;;;2.30;;
35959;SDS011;22043;50.970;7.192;2023-11-18T14:48:09;5.90;;;2.30;;
35959;SDS011;22043;50.970;7.192;2023-11-18T14:50:35;5.30;;;2.08;;
35959;SDS011;22043;50.970;7.192;2023-11-18T14:53:00;8.15;;;3.90;;
35959;SDS011;22043;50.970;7.192;2023-11-18T14:55:29;6.85;;;2.75;;
35959;SDS011;22043;50.970;7.192;2023-11-18T14:57:55;8.73;;;2.22;;
35959;SDS011;22043;50.970;7.192;2023-11-18T15:00:20;4.10;;;2.08;;
35959;SDS011;22043;50.970;7.192;2023-11-18T15:02:53;4.07;;;2.28;;
35959;SDS011;22043;50.970;7.192;2023-11-18T15:05:20;4.77;;;2.23;;
35959;SDS011;22043;50.970;7.192;2023-11-18T15:07:47;5.10;;;2.00;;
35959;SDS011;22043;50.970;7.192;2023-11-18T15:10:19;5.22;;;1.92;;
35959;SDS011;22043;50.970;7.192;2023-11-18T15:12:51;5.10;;;2.20;;
35959;SDS011;22043;50.970;7.192;2023-11-18T15:15:21;7.03;;;2.53;;
35959;SDS011;22043;50.970;7.192;2023-11-18T15:17:47;5.03;;;2.40;;
35959;SDS011;22043;50.970;7.192;2023-11-18T15:20:14;5.47;;;2.20;;